createdAt,value
2018-08-30T00:02:27.298Z,3.47
2018-08-30T00:04:56.421Z,3.40
2018-08-30T00:07:25.552Z,3.80
2018-08-30T00:09:54.661Z,3.33
2018-08-30T00:12:23.786Z,3.20
2018-08-30T00:14:52.887Z,3.77
2018-08-30T00:17:22.010Z,3.67
2018-08-30T00:19:51.941Z,4.30
2018-08-30T00:22:21.065Z,3.20
2018-08-30T00:24:50.182Z,4.00
2018-08-30T00:27:19.294Z,3.60
2018-08-30T00:29:48.454Z,4.10
2018-08-30T00:32:17.618Z,4.00
2018-08-30T00:34:46.733Z,3.90
2018-08-30T00:37:15.853Z,4.07
2018-08-30T00:39:44.955Z,4.60
2018-08-30T00:42:15.174Z,3.77
2018-08-30T00:44:44.351Z,3.70
2018-08-30T00:47:19.246Z,3.63
2018-08-30T00:49:48.438Z,3.90
2018-08-30T00:52:17.705Z,4.33
2018-08-30T00:54:46.950Z,3.87
2018-08-30T00:57:17.346Z,4.50
2018-08-30T00:59:46.506Z,3.87
2018-08-30T01:02:15.630Z,3.57
2018-08-30T01:04:44.874Z,3.73
2018-08-30T01:07:14.004Z,3.73
2018-08-30T01:09:43.078Z,4.40
2018-08-30T01:12:12.486Z,3.97
2018-08-30T01:14:41.765Z,3.53
2018-08-30T01:17:11.245Z,3.90
2018-08-30T01:19:40.383Z,3.33
2018-08-30T01:22:09.514Z,3.40
2018-08-30T01:24:38.665Z,3.67
2018-08-30T01:27:07.814Z,3.30
2018-08-30T01:29:37.636Z,3.10
2018-08-30T01:32:07.395Z,3.40
2018-08-30T01:34:36.557Z,3.23
2018-08-30T01:37:05.882Z,3.50
2018-08-30T01:39:35.086Z,3.20
2018-08-30T01:42:04.811Z,3.50
2018-08-30T01:44:33.929Z,4.60
2018-08-30T01:47:03.549Z,3.03
2018-08-30T01:49:32.666Z,3.67
2018-08-30T01:52:01.866Z,3.67
2018-08-30T01:54:30.997Z,3.97
2018-08-30T01:57:00.419Z,2.93
2018-08-30T01:59:29.490Z,3.27
2018-08-30T02:01:58.596Z,3.30
2018-08-30T02:04:28.426Z,3.13
2018-08-30T02:06:57.638Z,3.33
2018-08-30T02:09:26.749Z,3.80
2018-08-30T02:11:55.830Z,3.10
2018-08-30T02:14:24.920Z,2.70
2018-08-30T02:16:54.018Z,2.93
2018-08-30T02:19:23.452Z,2.40
2018-08-30T02:21:52.521Z,2.37
2018-08-30T02:24:22.271Z,2.40
2018-08-30T02:26:51.778Z,2.00
2018-08-30T02:29:20.863Z,2.17
2018-08-30T02:31:49.990Z,2.57
2018-08-30T02:34:19.146Z,2.43
2018-08-30T02:36:48.315Z,2.40
2018-08-30T02:39:18.334Z,2.50
2018-08-30T02:41:47.793Z,3.67
2018-08-30T02:44:16.997Z,2.30
2018-08-30T02:46:46.148Z,2.70
2018-08-30T02:49:15.266Z,2.40
2018-08-30T02:51:44.385Z,3.23
2018-08-30T02:54:13.778Z,2.47
2018-08-30T02:56:43.090Z,2.00
2018-08-30T02:59:12.617Z,2.70
2018-08-30T03:01:41.705Z,2.53
2018-08-30T03:04:10.834Z,2.50
2018-08-30T03:06:39.945Z,3.67
2018-08-30T03:09:10.097Z,2.73
2018-08-30T03:11:39.224Z,2.87
2018-08-30T03:14:08.618Z,2.70
2018-08-30T03:16:37.710Z,2.33
2018-08-30T03:19:06.826Z,2.73
2018-08-30T03:21:36.101Z,2.60
2018-08-30T03:24:05.254Z,2.40
2018-08-30T03:26:34.425Z,3.10
2018-08-30T03:29:03.538Z,3.57
2018-08-30T03:31:32.648Z,2.90
2018-08-30T03:34:01.736Z,2.93
2018-08-30T03:36:30.830Z,2.43
2018-08-30T03:39:00.441Z,3.50
2018-08-30T03:41:30.305Z,3.10
2018-08-30T03:43:59.477Z,3.47
2018-08-30T03:46:28.843Z,2.60
2018-08-30T03:48:58.115Z,2.97
2018-08-30T03:51:27.349Z,3.00
2018-08-30T03:53:56.618Z,3.30
2018-08-30T03:56:25.930Z,3.30
2018-08-30T03:58:55.363Z,3.03
2018-08-30T04:01:24.485Z,3.03
2018-08-30T04:03:53.565Z,3.43
2018-08-30T04:06:22.694Z,4.43
2018-08-30T04:08:52.206Z,3.50
2018-08-30T04:11:21.325Z,3.00
2018-08-30T04:13:50.437Z,4.40
2018-08-30T04:16:19.541Z,3.60
2018-08-30T04:18:52.757Z,4.03
2018-08-30T04:21:21.890Z,3.93
2018-08-30T04:23:51.014Z,3.33
2018-08-30T04:26:20.824Z,3.93
2018-08-30T04:28:50.010Z,4.60
2018-08-30T04:31:19.156Z,4.27
2018-08-30T04:33:48.257Z,3.50
2018-08-30T04:36:17.382Z,4.20
2018-08-30T04:38:47.163Z,3.87
2018-08-30T04:41:17.173Z,3.73
2018-08-30T04:43:47.038Z,3.80
2018-08-30T04:46:16.725Z,3.50
2018-08-30T04:48:46.065Z,4.17
2018-08-30T04:51:15.401Z,4.23
2018-08-30T04:53:44.561Z,3.60
2018-08-30T04:56:13.661Z,4.23
2018-08-30T04:58:42.762Z,4.23
2018-08-30T05:01:12.389Z,4.00
2018-08-30T05:03:41.519Z,4.57
2018-08-30T05:06:10.587Z,3.63
2018-08-30T05:08:40.117Z,3.70
2018-08-30T05:11:09.801Z,3.40
2018-08-30T05:13:39.410Z,4.47
2018-08-30T05:16:08.502Z,3.30
2018-08-30T05:18:37.595Z,3.47
2018-08-30T05:21:06.721Z,4.03
2018-08-30T05:23:35.798Z,3.67
2018-08-30T05:26:05.782Z,3.97
2018-08-30T05:28:34.896Z,3.50
2018-08-30T05:31:04.002Z,3.87
2018-08-30T05:33:33.137Z,3.67
2018-08-30T05:36:02.911Z,4.30
2018-08-30T05:38:32.047Z,4.00
2018-08-30T05:41:02.718Z,3.43
2018-08-30T05:43:31.849Z,3.50
2018-08-30T05:46:01.405Z,3.23
2018-08-30T05:48:30.570Z,3.77
2018-08-30T05:50:59.718Z,3.40
2018-08-30T05:53:28.837Z,3.30
2018-08-30T05:55:57.965Z,3.60
2018-08-30T05:58:27.142Z,3.37
2018-08-30T06:00:56.278Z,3.27
2018-08-30T06:03:25.398Z,4.10
2018-08-30T06:05:55.379Z,4.27
2018-08-30T06:08:24.554Z,4.40
2018-08-30T06:10:53.626Z,3.70
2018-08-30T06:13:22.783Z,4.37
2018-08-30T06:15:51.874Z,4.67
2018-08-30T06:18:21.717Z,4.30
2018-08-30T06:20:50.893Z,3.93
2018-08-30T06:23:20.028Z,5.23
2018-08-30T06:25:49.141Z,4.53
2018-08-30T06:28:18.314Z,5.30
2018-08-30T06:30:47.414Z,6.20
2018-08-30T06:33:16.505Z,5.83
2018-08-30T06:35:45.643Z,5.70
2018-08-30T06:38:16.265Z,5.97
2018-08-30T06:40:45.410Z,5.97
2018-08-30T06:43:15.255Z,9.17
2018-08-30T06:45:48.027Z,5.50
2018-08-30T06:48:17.488Z,6.07
2018-08-30T06:50:46.875Z,5.30
2018-08-30T06:53:16.288Z,5.93
2018-08-30T06:55:45.410Z,6.13
2018-08-30T06:58:14.535Z,5.53
2018-08-30T07:00:43.650Z,5.60
2018-08-30T07:03:12.739Z,5.37
2018-08-30T07:05:42.041Z,5.50
2018-08-30T07:08:11.237Z,6.00
2018-08-30T07:10:40.463Z,6.50
2018-08-30T07:13:09.585Z,6.30
2018-08-30T07:15:38.719Z,5.57
2018-08-30T07:18:07.841Z,5.17
2018-08-30T07:20:37.731Z,6.00
2018-08-30T07:23:06.867Z,5.67
2018-08-30T07:25:36.112Z,6.20
2018-08-30T07:28:05.473Z,5.73
2018-08-30T07:30:34.637Z,4.70
2018-08-30T07:33:03.747Z,5.33
2018-08-30T07:35:32.883Z,5.10
2018-08-30T07:38:02.782Z,4.87
2018-08-30T07:40:31.877Z,4.77
2018-08-30T07:43:01.130Z,5.10
2018-08-30T07:45:31.510Z,4.77
2018-08-30T07:48:00.678Z,4.77
2018-08-30T07:50:29.853Z,5.00
2018-08-30T07:52:59.002Z,5.63
2018-08-30T07:55:28.461Z,4.10
2018-08-30T07:57:57.671Z,3.80
2018-08-30T08:00:26.789Z,4.17
2018-08-30T08:02:56.094Z,4.37
2018-08-30T08:05:25.218Z,4.57
2018-08-30T08:07:54.322Z,4.07
2018-08-30T08:10:23.485Z,3.40
2018-08-30T08:12:52.621Z,3.50
2018-08-30T08:15:21.731Z,3.90
2018-08-30T08:17:51.487Z,4.20
2018-08-30T08:20:20.610Z,3.77
2018-08-30T08:22:49.770Z,3.30
2018-08-30T08:25:18.966Z,3.57
2018-08-30T08:27:48.105Z,4.20
2018-08-30T08:30:17.245Z,3.13
2018-08-30T08:32:46.386Z,4.07
2018-08-30T08:35:15.490Z,3.97
2018-08-30T08:37:44.794Z,4.10
2018-08-30T08:40:14.109Z,4.63
2018-08-30T08:42:43.325Z,4.70
2018-08-30T08:45:12.704Z,4.37
2018-08-30T08:47:42.635Z,3.83
2018-08-30T08:50:11.719Z,3.43
2018-08-30T08:52:40.818Z,3.97
2018-08-30T08:55:09.929Z,4.40
2018-08-30T08:57:39.060Z,3.90
2018-08-30T09:00:08.173Z,3.73
2018-08-30T09:02:37.317Z,4.60
2018-08-30T09:05:07.647Z,3.90
2018-08-30T09:07:36.791Z,3.93
2018-08-30T09:10:06.896Z,3.73
2018-08-30T09:12:36.062Z,3.90
2018-08-30T09:15:05.281Z,4.40
2018-08-30T09:17:34.573Z,3.23
2018-08-30T09:20:03.754Z,3.60
2018-08-30T09:22:32.886Z,3.37
2018-08-30T09:25:02.823Z,3.67
2018-08-30T09:27:31.917Z,3.67
2018-08-30T09:30:01.012Z,3.90
2018-08-30T09:32:30.149Z,3.57
2018-08-30T09:34:59.453Z,3.20
2018-08-30T09:37:28.576Z,3.17
2018-08-30T09:39:57.714Z,2.90
2018-08-30T09:42:26.838Z,3.20
2018-08-30T09:44:56.009Z,3.43
2018-08-30T09:47:25.638Z,3.30
2018-08-30T09:49:55.777Z,3.93
2018-08-30T09:52:24.981Z,3.27
2018-08-30T09:54:54.141Z,4.37
2018-08-30T09:57:23.467Z,3.70
2018-08-30T09:59:52.845Z,3.53
2018-08-30T10:02:27.485Z,3.80
2018-08-30T10:04:56.824Z,3.40
2018-08-30T10:07:25.915Z,3.90
2018-08-30T10:09:55.009Z,3.80
2018-08-30T10:12:24.114Z,3.80
2018-08-30T10:14:53.276Z,3.67
2018-08-30T10:17:22.417Z,3.93
2018-08-30T10:19:52.082Z,5.10
2018-08-30T10:22:21.205Z,4.10
2018-08-30T10:24:50.362Z,4.63
2018-08-30T10:27:19.525Z,3.97
2018-08-30T10:29:48.630Z,3.93
2018-08-30T10:32:17.806Z,4.30
2018-08-30T10:34:47.628Z,5.33
2018-08-30T10:37:16.762Z,4.10
2018-08-30T10:39:45.906Z,5.20
2018-08-30T10:42:15.049Z,4.70
2018-08-30T10:44:44.750Z,5.00
2018-08-30T10:47:13.917Z,7.50
2018-08-30T10:49:43.909Z,4.93
2018-08-30T10:52:12.901Z,5.73
2018-08-30T10:54:42.096Z,5.30
2018-08-30T10:57:11.189Z,5.10
2018-08-30T10:59:40.302Z,6.90
2018-08-30T11:02:09.693Z,5.80
2018-08-30T11:04:38.916Z,5.00
2018-08-30T11:07:08.037Z,5.67
2018-08-30T11:09:37.140Z,5.70
2018-08-30T11:12:06.278Z,5.70
2018-08-30T11:14:35.366Z,5.70
2018-08-30T11:17:04.493Z,5.97
2018-08-30T11:19:33.827Z,5.57
2018-08-30T11:22:02.877Z,6.00
2018-08-30T11:24:31.988Z,5.10
2018-08-30T11:27:01.145Z,5.53
2018-08-30T11:29:30.226Z,5.13
2018-08-30T11:31:59.361Z,6.40
2018-08-30T11:34:29.190Z,6.10
2018-08-30T11:36:58.338Z,5.80
2018-08-30T11:39:27.441Z,5.57
2018-08-30T11:41:56.563Z,6.13
2018-08-30T11:44:25.690Z,4.60
2018-08-30T11:46:54.861Z,5.70
2018-08-30T11:49:24.323Z,6.47
2018-08-30T11:51:53.462Z,6.07
2018-08-30T11:54:22.795Z,6.70
2018-08-30T11:56:51.857Z,5.10
2018-08-30T11:59:22.206Z,5.57
2018-08-30T12:01:51.340Z,5.83
2018-08-30T12:04:20.534Z,7.23
2018-08-30T12:06:49.693Z,6.50
2018-08-30T12:09:18.796Z,6.23
2018-08-30T12:11:47.910Z,6.30
2018-08-30T12:14:17.026Z,6.33
2018-08-30T12:16:46.276Z,5.50
2018-08-30T12:19:15.387Z,6.97
2018-08-30T12:21:44.523Z,6.47
2018-08-30T12:24:13.648Z,7.37
2018-08-30T12:26:42.744Z,7.97
2018-08-30T12:29:11.916Z,7.47
2018-08-30T12:31:41.072Z,8.33
2018-08-30T12:34:10.241Z,8.30
2018-08-30T12:36:39.662Z,6.80
2018-08-30T12:39:11.295Z,6.87
2018-08-30T12:41:40.416Z,8.00
2018-08-30T12:44:09.624Z,6.57
2018-08-30T12:46:38.748Z,6.53
2018-08-30T12:49:07.860Z,7.80
2018-08-30T12:51:37.405Z,7.30
2018-08-30T12:54:06.603Z,8.57
2018-08-30T12:56:36.077Z,8.00
2018-08-30T12:59:10.379Z,6.60
2018-08-30T13:01:39.603Z,7.03
2018-08-30T13:04:09.054Z,7.40
2018-08-30T13:06:42.270Z,6.63
2018-08-30T13:09:11.713Z,7.33
2018-08-30T13:11:40.637Z,6.87
2018-08-30T13:14:09.703Z,9.20
2018-08-30T13:16:38.748Z,7.77
2018-08-30T13:19:08.774Z,8.50
2018-08-30T13:21:38.645Z,9.20
2018-08-30T13:24:07.764Z,8.80
2018-08-30T13:26:36.843Z,8.00
2018-08-30T13:29:06.010Z,7.43
2018-08-30T13:31:35.122Z,8.70
2018-08-30T13:34:04.660Z,9.90
2018-08-30T13:36:34.093Z,8.47
2018-08-30T13:39:03.158Z,7.83
2018-08-30T13:41:32.453Z,9.13
2018-08-30T13:44:01.414Z,7.63
2018-08-30T13:46:30.464Z,8.73
2018-08-30T13:49:00.294Z,7.20
2018-08-30T13:51:30.416Z,8.27
2018-08-30T13:53:59.533Z,7.70
2018-08-30T13:56:28.911Z,7.83
2018-08-30T13:58:58.034Z,7.77
2018-08-30T14:01:27.574Z,8.17
2018-08-30T14:03:56.080Z,9.07
2018-08-30T14:06:25.328Z,7.97
2018-08-30T14:08:54.517Z,9.17
2018-08-30T14:11:23.731Z,9.00
2018-08-30T14:13:52.845Z,9.00
2018-08-30T14:16:21.698Z,9.37
2018-08-30T14:18:51.201Z,8.60
2018-08-30T14:21:20.302Z,10.00
2018-08-30T14:23:49.410Z,9.20
2018-08-30T14:26:18.558Z,8.30
2018-08-30T14:28:47.733Z,9.60
2018-08-30T14:31:16.850Z,8.03
2018-08-30T14:33:45.967Z,9.33
2018-08-30T14:36:15.086Z,8.93
2018-08-30T14:38:44.296Z,8.90
2018-08-30T14:41:13.653Z,9.70
2018-08-30T14:43:42.605Z,8.23
2018-08-30T14:46:11.689Z,8.93
2018-08-30T14:48:40.839Z,8.10
2018-08-30T14:51:10.014Z,9.47
2018-08-30T14:53:39.318Z,9.20
2018-08-30T14:56:08.034Z,9.60
2018-08-30T14:58:37.198Z,10.17
2018-08-30T15:01:06.426Z,9.83
2018-08-30T15:03:35.590Z,10.23
2018-08-30T15:06:04.785Z,9.70
2018-08-30T15:08:33.963Z,9.53
2018-08-30T15:11:03.743Z,9.63
2018-08-30T15:13:32.844Z,9.43
2018-08-30T15:16:01.982Z,10.40
2018-08-30T15:18:31.078Z,10.13
2018-08-30T15:21:00.194Z,11.30
2018-08-30T15:23:29.470Z,9.00
2018-08-30T15:25:58.573Z,8.93
2018-08-30T15:28:27.677Z,8.97
2018-08-30T15:30:56.837Z,10.93
2018-08-30T15:33:25.953Z,9.83
2018-08-30T15:35:55.277Z,9.93
2018-08-30T15:38:24.454Z,10.87
2018-08-30T15:40:54.134Z,9.60
2018-08-30T15:43:23.271Z,10.33
2018-08-30T15:45:52.413Z,9.70
2018-08-30T15:48:21.654Z,9.70
2018-08-30T15:50:50.754Z,8.80
2018-08-30T15:53:19.998Z,10.80
2018-08-30T15:55:49.558Z,9.20
2018-08-30T15:58:18.727Z,10.10
2018-08-30T16:00:47.871Z,10.93
2018-08-30T16:03:16.997Z,11.13
2018-08-30T16:05:46.130Z,9.43
2018-08-30T16:08:15.626Z,10.00
2018-08-30T16:10:44.738Z,10.83
2018-08-30T16:13:13.936Z,10.13
2018-08-30T16:15:43.007Z,9.50
2018-08-30T16:18:12.293Z,11.33
2018-08-30T16:20:41.256Z,9.80
2018-08-30T16:23:29.623Z,9.70
2018-08-30T16:25:58.702Z,9.90
2018-08-30T16:28:28.830Z,10.87
2018-08-30T16:30:58.336Z,9.97
2018-08-30T16:33:27.834Z,10.23
2018-08-30T16:35:56.952Z,9.60
2018-08-30T16:38:26.179Z,8.97
2018-08-30T16:40:55.698Z,9.60
2018-08-30T16:43:24.983Z,8.57
2018-08-30T16:45:53.941Z,7.40
2018-08-30T16:48:23.059Z,8.60
2018-08-30T16:50:52.223Z,8.20
2018-08-30T16:53:21.413Z,8.90
2018-08-30T16:55:50.575Z,7.57
2018-08-30T16:58:19.859Z,7.83
2018-08-30T17:00:49.076Z,8.70
2018-08-30T17:03:18.297Z,7.80
2018-08-30T17:05:48.138Z,9.33
2018-08-30T17:08:17.247Z,8.17
2018-08-30T17:10:46.413Z,9.37
2018-08-30T17:13:15.609Z,9.90
2018-08-30T17:15:44.770Z,10.37
2018-08-30T17:18:13.877Z,12.20
2018-08-30T17:20:46.825Z,12.40
2018-08-30T17:23:15.574Z,9.90
2018-08-30T17:25:45.031Z,10.40
2018-08-30T17:28:14.213Z,9.57
2018-08-30T17:30:43.781Z,9.30
2018-08-30T17:33:13.084Z,10.30
2018-08-30T17:35:42.216Z,10.70
2018-08-30T17:38:11.516Z,11.20
2018-08-30T17:40:40.618Z,10.77
2018-08-30T17:43:09.825Z,12.77
2018-08-30T17:45:38.878Z,10.30
2018-08-30T17:48:08.006Z,11.00
2018-08-30T17:50:37.889Z,10.80
2018-08-30T17:53:06.917Z,11.00
2018-08-30T17:55:36.010Z,11.77
2018-08-30T17:58:05.488Z,11.10
2018-08-30T18:00:35.061Z,9.77
2018-08-30T18:03:04.611Z,11.00
2018-08-30T18:05:33.664Z,11.07
2018-08-30T18:08:03.626Z,10.33
2018-08-30T18:10:39.461Z,11.80
2018-08-30T18:13:08.617Z,10.60
2018-08-30T18:15:37.781Z,11.33
2018-08-30T18:18:07.000Z,10.67
2018-08-30T18:20:36.029Z,10.87
2018-08-30T18:23:05.260Z,10.43
2018-08-30T18:25:34.469Z,10.73
2018-08-30T18:28:04.069Z,10.50
2018-08-30T18:30:33.195Z,11.20
2018-08-30T18:33:02.314Z,11.20
2018-08-30T18:35:31.445Z,11.00
2018-08-30T18:38:00.545Z,10.57
2018-08-30T18:40:29.657Z,10.77
2018-08-30T18:42:58.788Z,12.03
2018-08-30T18:45:27.951Z,10.50
2018-08-30T18:47:58.159Z,11.40
2018-08-30T18:50:27.266Z,10.27
2018-08-30T18:52:56.595Z,10.20
2018-08-30T18:55:25.731Z,11.10
2018-08-30T18:57:54.844Z,9.30
2018-08-30T19:00:24.813Z,11.97
2018-08-30T19:02:54.659Z,8.87
2018-08-30T19:05:23.769Z,11.37
2018-08-30T19:07:52.941Z,10.20
2018-08-30T19:10:22.064Z,11.40
2018-08-30T19:12:51.190Z,11.60
2018-08-30T19:15:25.664Z,12.47
2018-08-30T19:18:00.202Z,11.00
2018-08-30T19:20:29.382Z,12.63
2018-08-30T19:22:58.470Z,11.00
2018-08-30T19:25:29.502Z,12.67
2018-08-30T19:27:58.638Z,12.07
2018-08-30T19:30:30.050Z,12.07
2018-08-30T19:33:00.085Z,11.63
2018-08-30T19:35:34.442Z,11.37
2018-08-30T19:38:03.626Z,10.87
2018-08-30T19:40:38.061Z,12.90
2018-08-30T19:43:07.234Z,11.10
2018-08-30T19:45:36.329Z,11.27
2018-08-30T19:48:05.477Z,11.90
2018-08-30T19:50:34.596Z,11.10
2018-08-30T19:53:03.715Z,11.40
2018-08-30T19:55:32.829Z,12.37
2018-08-30T19:58:02.645Z,11.87
2018-08-30T20:00:31.819Z,12.90
2018-08-30T20:03:01.571Z,11.23
2018-08-30T20:05:30.840Z,11.87
2018-08-30T20:08:00.319Z,11.70
2018-08-30T20:10:29.231Z,11.87
2018-08-30T20:12:58.395Z,13.80
2018-08-30T20:15:27.558Z,11.70
2018-08-30T20:17:56.743Z,11.80
2018-08-30T20:20:25.878Z,13.53
2018-08-30T20:22:55.073Z,12.10
2018-08-30T20:25:24.248Z,12.53
2018-08-30T20:27:53.441Z,12.90
2018-08-30T20:30:22.554Z,11.87
2018-08-30T20:32:51.667Z,13.50
2018-08-30T20:35:20.773Z,11.90
2018-08-30T20:37:50.661Z,13.33
2018-08-30T20:40:19.878Z,11.83
2018-08-30T20:42:48.990Z,11.20
2018-08-30T20:45:18.537Z,12.10
2018-08-30T20:47:47.722Z,14.17
2018-08-30T20:50:16.866Z,14.63
2018-08-30T20:52:45.982Z,12.33
2018-08-30T20:55:15.128Z,11.50
2018-08-30T20:57:44.238Z,11.70
2018-08-30T21:00:13.411Z,12.33
2018-08-30T21:02:42.514Z,11.73
2018-08-30T21:05:13.052Z,13.87
2018-08-30T21:07:42.189Z,11.00
2018-08-30T21:10:11.282Z,12.57
2018-08-30T21:12:40.439Z,12.20
2018-08-30T21:15:09.631Z,11.80
2018-08-30T21:17:38.910Z,11.07
2018-08-30T21:20:08.762Z,11.80
2018-08-30T21:22:37.945Z,12.37
2018-08-30T21:25:07.341Z,12.17
2018-08-30T21:27:36.556Z,12.60
2018-08-30T21:30:06.494Z,13.17
2018-08-30T21:32:35.675Z,13.70
2018-08-30T21:35:04.842Z,12.53
2018-08-30T21:37:33.990Z,13.00
2018-08-30T21:40:03.147Z,12.10
2018-08-30T21:42:32.254Z,12.87
2018-08-30T21:45:01.425Z,11.90
2018-08-30T21:47:30.524Z,12.33
2018-08-30T21:50:00.102Z,15.00
2018-08-30T21:52:29.421Z,12.27
2018-08-30T21:54:58.559Z,12.10
2018-08-30T21:57:27.663Z,11.13
2018-08-30T21:59:56.854Z,12.00
2018-08-30T22:02:26.082Z,12.70
2018-08-30T22:04:55.497Z,13.00
2018-08-30T22:07:24.798Z,11.83
2018-08-30T22:09:53.941Z,12.33
2018-08-30T22:12:23.021Z,10.33
2018-08-30T22:14:52.119Z,13.20
2018-08-30T22:17:21.237Z,13.20
2018-08-30T22:19:50.375Z,12.10
2018-08-30T22:22:19.485Z,13.60
2018-08-30T22:24:48.573Z,13.47
2018-08-30T22:27:17.733Z,14.27
2018-08-30T22:29:47.545Z,13.77
2018-08-30T22:32:16.675Z,12.10
2018-08-30T22:34:45.866Z,12.53
2018-08-30T22:37:15.614Z,13.20
2018-08-30T22:39:44.750Z,13.17
2018-08-30T22:42:13.881Z,14.83
2018-08-30T22:44:43.403Z,13.40
2018-08-30T22:47:12.756Z,13.37
2018-08-30T22:49:41.939Z,12.63
2018-08-30T22:52:11.085Z,12.83
2018-08-30T22:54:40.217Z,14.20
2018-08-30T22:57:09.357Z,13.13
2018-08-30T22:59:38.505Z,14.40
2018-08-30T23:02:07.638Z,12.97
2018-08-30T23:04:37.400Z,13.03
2018-08-30T23:07:07.328Z,12.13
2018-08-30T23:09:36.649Z,14.80
2018-08-30T23:12:06.087Z,14.40
2018-08-30T23:14:35.218Z,12.47
2018-08-30T23:17:04.454Z,12.70
2018-08-30T23:19:33.794Z,12.83
2018-08-30T23:22:02.916Z,15.00
2018-08-30T23:24:32.026Z,13.07
2018-08-30T23:27:01.157Z,12.53
2018-08-30T23:29:30.278Z,14.27
2018-08-30T23:31:59.409Z,12.10
2018-08-30T23:34:28.560Z,12.27
2018-08-30T23:36:57.766Z,13.20
2018-08-30T23:39:27.060Z,13.43
2018-08-30T23:41:56.257Z,13.37
2018-08-30T23:44:26.170Z,12.70
2018-08-30T23:46:55.289Z,13.30
2018-08-30T23:49:24.422Z,12.73
2018-08-30T23:51:54.338Z,13.47
2018-08-30T23:54:23.466Z,13.27
2018-08-30T23:56:52.705Z,14.00
2018-08-30T23:59:39.534Z,14.53
